Time;durP1;ratioP1;P1;durP2;ratioP2;P2;SDS_P1;SDS_P2;PMS_P1;PMS_P2;Temp;Humidity;BMP_temperature;BMP_pressure;BME280_temperature;BME280_humidity;BME280_pressure;Samples;Min_cycle;Max_cycle;Signal;HPM_P1;HPM_P2
2023/04/27 00:00:30;;;;;;;12.80;7.03;;;8.50;1.00;;;;;;5020195;28;20170;-89
2023/04/27 00:02:56;;;;;;;10.73;6.63;;;8.50;1.00;;;;;;5036107;28;20282;-92
2023/04/27 00:05:25;;;;;;;14.03;7.57;;;8.40;1.00;;;;;;5039791;28;20201;-88
2023/04/27 00:07:50;;;;;;;11.33;7.70;;;8.50;1.00;;;;;;5039588;28;20162;-88
2023/04/27 00:10:17;;;;;;;9.77;6.80;;;8.50;1.00;;;;;;5036929;28;20185;-89
2023/04/27 00:12:43;;;;;;;9.00;7.10;;;8.50;1.00;;;;;;5035931;28;20182;-92
2023/04/27 00:15:10;;;;;;;14.60;7.70;;;8.40;1.00;;;;;;5037645;28;20190;-89
2023/04/27 00:17:57;;;;;;;11.30;7.83;;;8.50;1.00;;;;;;5030960;28;20209;-91
2023/04/27 00:20:24;;;;;;;10.33;7.93;;;8.50;1.00;;;;;;5023388;28;20194;-92
2023/04/27 00:22:52;;;;;;;9.93;7.37;;;8.60;1.00;;;;;;5016361;28;20253;-89
2023/04/27 00:25:20;;;;;;;8.93;6.63;;;8.50;1.00;;;;;;5015297;28;20265;-90
2023/04/27 00:27:45;;;;;;;12.47;7.60;;;8.50;1.00;;;;;;5014711;28;20217;-90
2023/04/27 00:30:11;;;;;;;10.67;6.70;;;8.40;1.00;;;;;;5015254;28;20174;-91
2023/04/27 00:32:37;;;;;;;11.57;6.97;;;8.40;1.00;;;;;;5015019;28;20177;-90
2023/04/27 00:35:03;;;;;;;11.50;7.87;;;8.40;1.00;;;;;;5014555;28;20190;-91
2023/04/27 00:37:29;;;;;;;10.27;7.53;;;8.40;1.00;;;;;;5014435;28;20252;-90
2023/04/27 00:39:55;;;;;;;11.33;7.27;;;8.40;1.00;;;;;;5033025;28;20718;-90
2023/04/27 00:42:20;;;;;;;13.20;8.00;;;8.40;1.00;;;;;;5022713;28;20178;-90
2023/04/27 00:44:47;;;;;;;9.03;6.97;;;8.40;1.00;;;;;;5033457;28;20293;-90
2023/04/27 00:47:16;;;;;;;10.73;7.47;;;8.30;1.00;;;;;;5019042;28;20175;-90
2023/04/27 00:49:43;;;;;;;11.70;7.03;;;8.30;1.00;;;;;;5015780;28;20269;-93
2023/04/27 00:52:10;;;;;;;12.70;7.10;;;8.30;1.00;;;;;;5021920;28;20167;-93
2023/04/27 00:54:35;;;;;;;9.87;7.20;;;8.20;1.00;;;;;;5034761;28;20169;-93
2023/04/27 00:57:03;;;;;;;12.90;7.47;;;8.30;1.00;;;;;;5015357;28;20206;-94
2023/04/27 00:59:30;;;;;;;12.10;8.17;;;8.20;1.00;;;;;;5016131;28;20717;-93
2023/04/27 01:01:56;;;;;;;12.10;7.47;;;8.10;1.00;;;;;;5014559;28;20178;-93
2023/04/27 01:04:23;;;;;;;9.17;7.57;;;8.10;1.00;;;;;;5015233;28;20167;-94
2023/04/27 01:06:48;;;;;;;11.57;7.20;;;8.10;1.00;;;;;;5018180;28;20180;-93
2023/04/27 01:09:18;;;;;;;9.70;7.30;;;8.00;1.00;;;;;;5016743;28;20175;-93
2023/04/27 01:11:44;;;;;;;11.83;8.10;;;8.00;1.00;;;;;;4998596;28;20638;-93
2023/04/27 01:14:10;;;;;;;10.80;7.53;;;8.00;1.00;;;;;;5013981;28;20212;-93
2023/04/27 01:16:36;;;;;;;14.43;8.13;;;7.90;1.00;;;;;;5015047;28;20701;-93
2023/04/27 01:19:03;;;;;;;11.67;7.67;;;7.80;1.00;;;;;;5016207;28;20179;-92
2023/04/27 01:21:28;;;;;;;12.17;8.47;;;7.70;1.00;;;;;;5036025;28;20186;-92
2023/04/27 01:23:57;;;;;;;11.87;8.20;;;7.70;1.00;;;;;;5023592;28;20535;-92
2023/04/27 01:26:23;;;;;;;12.43;7.90;;;7.70;1.00;;;;;;5015732;28;20650;-93
2023/04/27 01:28:48;;;;;;;13.20;8.47;;;7.60;1.00;;;;;;5013036;28;20170;-94
2023/04/27 01:31:14;;;;;;;11.80;7.60;;;7.70;1.00;;;;;;5013766;28;20197;-93
2023/04/27 01:33:41;;;;;;;15.10;8.03;;;7.60;1.00;;;;;;5014234;28;20178;-92
2023/04/27 01:36:08;;;;;;;11.53;8.37;;;7.60;1.00;;;;;;5013753;28;20218;-92
2023/04/27 01:38:34;;;;;;;15.53;8.57;;;7.50;1.00;;;;;;5020755;28;20181;-89
2023/04/27 01:41:03;;;;;;;14.23;9.00;;;7.40;4.00;;;;;;5032941;28;20174;-92
2023/04/27 01:43:31;;;;;;;14.17;8.37;;;7.40;7.10;;;;;;5035614;28;20234;-92
2023/04/27 01:46:17;;;;;;;13.30;8.23;;;7.40;9.20;;;;;;5037031;28;20229;-91
2023/04/27 01:48:57;;;;;;;11.97;7.73;;;7.40;6.30;;;;;;5014578;28;20198;-92
2023/04/27 01:51:23;;;;;;;11.90;7.83;;;7.40;5.80;;;;;;5013779;28;20261;-89
2023/04/27 01:53:49;;;;;;;12.23;8.13;;;7.40;5.10;;;;;;5022234;28;20214;-89
2023/04/27 01:56:14;;;;;;;11.00;7.43;;;7.40;5.00;;;;;;5037164;28;20269;-88
2023/04/27 01:58:40;;;;;;;13.33;8.50;;;7.40;8.20;;;;;;5034516;28;20173;-89
2023/04/27 02:01:06;;;;;;;12.77;8.00;;;7.40;7.00;;;;;;5031152;28;20229;-89
2023/04/27 02:03:32;;;;;;;13.63;9.03;;;7.40;6.70;;;;;;5016489;28;20170;-89
2023/04/27 02:06:00;;;;;;;14.93;9.10;;;7.40;8.90;;;;;;5014010;28;20212;-92
2023/04/27 02:08:26;;;;;;;10.17;8.10;;;7.40;9.30;;;;;;5015068;28;20225;-93
2023/04/27 02:10:52;;;;;;;11.23;7.90;;;7.40;10.50;;;;;;5013730;28;20186;-92
2023/04/27 02:13:17;;;;;;;10.33;8.10;;;7.40;10.80;;;;;;5014911;28;20178;-93
2023/04/27 02:15:43;;;;;;;13.93;8.70;;;7.40;8.00;;;;;;5029374;28;20197;-90
2023/04/27 02:18:09;;;;;;;13.27;7.87;;;7.40;10.80;;;;;;5037167;28;20171;-91
2023/04/27 02:20:34;;;;;;;12.10;8.27;;;7.40;10.00;;;;;;5020627;28;20607;-92
2023/04/27 02:23:02;;;;;;;11.50;8.27;;;7.30;12.60;;;;;;5016998;28;20209;-92
2023/04/27 02:25:31;;;;;;;11.77;8.63;;;7.40;12.40;;;;;;5014465;28;20198;-91
2023/04/27 02:27:57;;;;;;;12.60;7.97;;;7.40;12.80;;;;;;5014686;28;20180;-92
2023/04/27 02:30:22;;;;;;;13.07;8.20;;;7.40;12.70;;;;;;5014840;28;20182;-92
2023/04/27 02:32:48;;;;;;;16.83;7.83;;;7.40;14.40;;;;;;5012913;28;20179;-94
2023/04/27 02:35:14;;;;;;;11.07;8.50;;;7.30;13.70;;;;;;5022998;28;20199;-91
2023/04/27 02:37:40;;;;;;;11.97;8.10;;;7.30;14.10;;;;;;5036718;28;20180;-92
2023/04/27 02:40:12;;;;;;;13.93;8.53;;;7.30;13.50;;;;;;5036582;28;20193;-92
2023/04/27 02:42:40;;;;;;;12.40;8.47;;;7.20;14.00;;;;;;5015090;28;20202;-93
2023/04/27 02:45:07;;;;;;;11.30;8.17;;;7.20;16.80;;;;;;5013063;28;20174;-93
2023/04/27 02:47:33;;;;;;;15.07;8.57;;;7.20;16.40;;;;;;5014369;28;20627;-93
2023/04/27 02:49:59;;;;;;;14.40;8.60;;;7.20;18.70;;;;;;5013475;28;20278;-93
2023/04/27 02:52:25;;;;;;;10.83;8.53;;;7.10;19.80;;;;;;5020690;28;20190;-90
2023/04/27 02:54:51;;;;;;;15.00;8.57;;;7.10;21.50;;;;;;5035784;28;20193;-93
2023/04/27 02:57:16;;;;;;;11.37;8.73;;;7.00;22.80;;;;;;5023420;28;20304;-93
2023/04/27 02:59:42;;;;;;;12.00;9.07;;;7.00;23.60;;;;;;5020656;28;20201;-93
2023/04/27 03:02:08;;;;;;;13.07;8.70;;;7.00;23.90;;;;;;5016674;28;20213;-93
2023/04/27 03:04:35;;;;;;;13.27;8.70;;;7.00;23.50;;;;;;5016488;28;20193;-93
2023/04/27 03:07:02;;;;;;;10.87;8.37;;;6.90;24.10;;;;;;5016141;28;20183;-92
2023/04/27 03:09:28;;;;;;;11.03;8.30;;;6.90;25.60;;;;;;5018395;28;20292;-92
2023/04/27 03:11:54;;;;;;;12.27;8.90;;;6.90;24.60;;;;;;5028360;28;20158;-93
2023/04/27 03:14:22;;;;;;;10.20;8.60;;;6.80;25.10;;;;;;5040710;28;20186;-90
2023/04/27 03:16:49;;;;;;;14.57;9.00;;;6.90;24.70;;;;;;5026063;28;20225;-93
2023/04/27 03:19:16;;;;;;;12.33;8.90;;;6.90;26.20;;;;;;5032669;28;20170;-91
2023/04/27 03:21:42;;;;;;;10.93;8.33;;;6.80;25.10;;;;;;5028411;28;20281;-92
2023/04/27 03:24:08;;;;;;;11.80;8.73;;;6.80;27.20;;;;;;5018426;28;20648;-92
2023/04/27 03:26:33;;;;;;;11.77;8.53;;;6.80;27.40;;;;;;5020236;28;20174;-89
2023/04/27 03:28:59;;;;;;;12.03;8.40;;;6.70;28.20;;;;;;5035154;28;20171;-88
2023/04/27 03:31:28;;;;;;;14.07;9.27;;;6.70;28.40;;;;;;5035215;28;20281;-92
2023/04/27 03:33:57;;;;;;;13.50;8.70;;;6.80;28.50;;;;;;5018317;28;20479;-91
2023/04/27 03:36:23;;;;;;;10.17;8.40;;;6.80;29.00;;;;;;5017589;28;20232;-92
2023/04/27 03:38:48;;;;;;;13.47;9.13;;;6.70;28.90;;;;;;5015822;28;20178;-91
2023/04/27 03:41:14;;;;;;;14.50;9.00;;;6.80;28.70;;;;;;5016312;28;20170;-92
2023/04/27 03:43:40;;;;;;;12.70;8.33;;;6.80;27.80;;;;;;5017198;28;20183;-89
2023/04/27 03:46:07;;;;;;;12.50;9.50;;;6.80;26.80;;;;;;5017000;28;20273;-90
2023/04/27 03:48:32;;;;;;;12.30;8.33;;;6.80;27.60;;;;;;5016337;28;20174;-91
2023/04/27 03:51:00;;;;;;;12.20;9.23;;;6.80;25.60;;;;;;5015691;28;20672;-93
2023/04/27 03:53:25;;;;;;;12.10;9.03;;;6.80;26.40;;;;;;5027565;28;20186;-89
2023/04/27 03:55:51;;;;;;;14.80;9.87;;;6.70;26.60;;;;;;5038384;28;20205;-89
2023/04/27 03:58:20;;;;;;;13.90;9.23;;;6.70;26.80;;;;;;5029543;28;20155;-89
2023/04/27 04:00:45;;;;;;;17.70;9.80;;;6.70;29.30;;;;;;5039738;28;20189;-89
2023/04/27 04:03:12;;;;;;;16.60;9.83;;;6.70;31.40;;;;;;5038641;28;20202;-92
2023/04/27 04:05:38;;;;;;;12.83;9.37;;;6.70;29.70;;;;;;5036957;28;20261;-90
2023/04/27 04:08:03;;;;;;;10.80;8.80;;;6.70;28.00;;;;;;5037094;28;20174;-91
2023/04/27 04:10:32;;;;;;;14.93;8.97;;;6.70;28.30;;;;;;5015906;28;20166;-92
2023/04/27 04:13:10;;;;;;;12.67;9.13;;;6.70;27.80;;;;;;5026179;28;20190;-93
2023/04/27 04:15:41;;;;;;;12.30;9.07;;;6.70;29.50;;;;;;5021509;28;20201;-92
2023/04/27 04:18:09;;;;;;;11.77;8.90;;;6.80;27.40;;;;;;5019019;28;20174;-91
2023/04/27 04:20:35;;;;;;;12.20;8.90;;;6.90;25.40;;;;;;5018527;28;20190;-91
2023/04/27 04:23:00;;;;;;;12.73;9.23;;;7.00;22.20;;;;;;5019263;28;20184;-92
2023/04/27 04:25:27;;;;;;;11.60;8.90;;;7.00;19.70;;;;;;5016840;28;20171;-95
2023/04/27 04:27:52;;;;;;;15.80;8.10;;;7.00;19.60;;;;;;5034474;28;20445;-93
2023/04/27 04:30:18;;;;;;;13.93;8.23;;;6.90;16.20;;;;;;5039065;28;20182;-93
2023/04/27 04:32:44;;;;;;;13.77;8.33;;;6.90;17.00;;;;;;5039895;28;20147;-90
2023/04/27 04:35:10;;;;;;;11.73;8.37;;;7.00;19.30;;;;;;5024463;28;20236;-92
2023/04/27 04:37:36;;;;;;;11.57;8.47;;;7.00;16.60;;;;;;5035370;28;20170;-90
2023/04/27 04:43:37;;;;;;;11.40;7.67;;;6.80;13.80;;;;;;5030400;28;20173;-92
2023/04/27 04:46:03;;;;;;;11.20;7.33;;;6.90;13.20;;;;;;5023854;28;20178;-91
2023/04/27 04:48:29;;;;;;;13.03;8.10;;;6.90;13.50;;;;;;5000130;28;20183;-89
2023/04/27 04:50:55;;;;;;;11.33;7.63;;;7.10;13.50;;;;;;5001396;28;20539;-92
2023/04/27 04:53:22;;;;;;;13.83;7.77;;;7.10;10.50;;;;;;5007327;28;20179;-88
2023/04/27 04:55:49;;;;;;;11.13;7.40;;;7.20;9.40;;;;;;5018973;28;20214;-90
2023/04/27 04:58:18;;;;;;;11.97;7.77;;;7.20;6.70;;;;;;5017397;28;20190;-91
2023/04/27 05:00:47;;;;;;;11.80;8.10;;;7.20;4.70;;;;;;5016251;28;20187;-92
2023/04/27 05:03:13;;;;;;;10.90;6.97;;;7.20;3.70;;;;;;5005639;28;20197;-92
2023/04/27 05:05:42;;;;;;;12.53;7.60;;;7.20;4.90;;;;;;5001269;28;20167;-92
2023/04/27 05:08:18;;;;;;;12.67;7.53;;;7.10;6.90;;;;;;4998522;28;20195;-91
2023/04/27 05:10:51;;;;;;;12.37;7.40;;;7.20;7.50;;;;;;5011346;28;20161;-87
2023/04/27 05:13:20;;;;;;;12.10;8.33;;;7.40;6.00;;;;;;5018582;28;20190;-88
2023/04/27 05:15:47;;;;;;;11.37;7.77;;;7.40;1.00;;;;;;5017213;28;20237;-90
2023/04/27 05:18:15;;;;;;;15.67;8.23;;;7.50;1.00;;;;;;4998178;28;20254;-92
2023/04/27 05:20:41;;;;;;;15.90;8.90;;;7.50;1.00;;;;;;4997158;28;20187;-92
2023/04/27 05:23:07;;;;;;;13.07;8.47;;;7.50;1.00;;;;;;5011734;28;20227;-91
2023/04/27 05:25:40;;;;;;;14.57;7.87;;;7.60;1.00;;;;;;5016512;28;20159;-91
2023/04/27 05:28:07;;;;;;;13.57;8.30;;;7.60;1.00;;;;;;4998108;28;20205;-90
2023/04/27 05:30:34;;;;;;;15.07;8.50;;;7.60;1.00;;;;;;4996796;28;20682;-89
2023/04/27 05:33:06;;;;;;;11.63;8.77;;;7.60;1.00;;;;;;4995199;28;20185;-89
2023/04/27 05:35:33;;;;;;;13.80;9.30;;;7.50;1.00;;;;;;4994308;28;20199;-89
2023/04/27 05:37:59;;;;;;;13.93;8.93;;;7.50;1.00;;;;;;4994730;28;20205;-89
2023/04/27 05:40:26;;;;;;;15.80;9.37;;;7.40;1.00;;;;;;4994537;28;20646;-91
2023/04/27 05:42:52;;;;;;;17.67;9.47;;;7.50;1.00;;;;;;4994283;28;20250;-89
2023/04/27 05:45:18;;;;;;;16.70;9.20;;;7.50;1.00;;;;;;4995257;28;20182;-89
2023/04/27 05:47:45;;;;;;;12.57;9.07;;;7.60;1.00;;;;;;4995757;28;20638;-89
2023/04/27 05:50:12;;;;;;;16.20;9.93;;;7.70;1.00;;;;;;5012893;28;20171;-89
2023/04/27 05:52:38;;;;;;;13.83;9.20;;;7.70;1.00;;;;;;5013279;28;20174;-89
2023/04/27 05:55:04;;;;;;;14.73;10.10;;;7.80;1.00;;;;;;5015304;28;20250;-92
2023/04/27 05:57:30;;;;;;;16.10;9.33;;;7.80;1.00;;;;;;4995439;28;20261;-92
2023/04/27 05:59:56;;;;;;;14.83;9.40;;;7.80;1.00;;;;;;5006005;28;20635;-90
2023/04/27 06:02:22;;;;;;;15.00;10.00;;;7.90;1.00;;;;;;5015699;28;20182;-89
2023/04/27 06:04:53;;;;;;;15.00;9.67;;;8.00;1.00;;;;;;5014909;28;20174;-91
2023/04/27 06:07:22;;;;;;;12.93;9.97;;;8.00;1.00;;;;;;5023283;28;20178;-90
2023/04/27 06:10:02;;;;;;;16.20;10.13;;;8.10;1.00;;;;;;5024713;28;20205;-94
2023/04/27 06:12:33;;;;;;;15.70;10.10;;;8.20;1.00;;;;;;5015850;28;20202;-92
2023/04/27 06:15:06;;;;;;;16.60;9.50;;;8.30;1.00;;;;;;5020110;28;20690;-89
2023/04/27 06:17:38;;;;;;;14.53;9.70;;;8.30;1.00;;;;;;5016213;28;20352;-91
2023/04/27 06:20:41;;;;;;;15.13;9.73;;;8.50;1.00;;;;;;5037708;28;20186;-90
2023/04/27 06:23:12;;;;;;;16.57;10.53;;;8.50;1.00;;;;;;5023926;28;20201;-91
2023/04/27 06:25:40;;;;;;;14.87;10.07;;;8.60;1.00;;;;;;5017344;28;20611;-91
2023/04/27 06:28:06;;;;;;;15.17;10.23;;;8.60;1.00;;;;;;5033538;28;20175;-90
2023/04/27 06:30:31;;;;;;;15.80;10.33;;;8.60;1.00;;;;;;5012697;28;20635;-92
2023/04/27 06:32:58;;;;;;;12.13;9.17;;;8.60;1.00;;;;;;5026354;28;20208;-91
2023/04/27 06:35:28;;;;;;;18.07;10.23;;;8.70;1.00;;;;;;5022606;28;20200;-91
2023/04/27 06:37:57;;;;;;;15.73;10.20;;;8.70;1.00;;;;;;5034567;28;20175;-91
2023/04/27 06:40:25;;;;;;;19.23;9.93;;;8.90;1.00;;;;;;5021138;28;20170;-91
2023/04/27 06:42:51;;;;;;;18.60;10.37;;;8.90;1.00;;;;;;5020433;28;20175;-91
2023/04/27 06:45:19;;;;;;;17.67;10.33;;;8.80;1.00;;;;;;5008690;28;20244;-92
2023/04/27 06:47:46;;;;;;;14.37;10.33;;;8.80;1.00;;;;;;5025600;28;20179;-90
2023/04/27 06:50:11;;;;;;;15.53;9.47;;;8.70;1.00;;;;;;5021293;28;20201;-90
2023/04/27 06:52:37;;;;;;;18.40;10.87;;;8.80;1.00;;;;;;5037991;28;20155;-91
2023/04/27 06:55:04;;;;;;;16.73;9.53;;;8.90;1.00;;;;;;5021372;28;20178;-91
2023/04/27 06:57:31;;;;;;;17.23;10.30;;;8.90;1.00;;;;;;5019052;28;20217;-91
2023/04/27 06:59:57;;;;;;;19.00;9.60;;;9.00;1.00;;;;;;5036275;28;20178;-90
2023/04/27 07:02:23;;;;;;;17.33;9.87;;;8.90;1.00;;;;;;5038281;28;20258;-91
2023/04/27 07:04:49;;;;;;;15.97;10.00;;;9.00;1.00;;;;;;5026129;28;20185;-91
2023/04/27 07:07:31;;;;;;;12.83;9.10;;;9.10;1.00;;;;;;5018013;28;20269;-91
2023/04/27 07:09:57;;;;;;;18.83;10.63;;;9.30;1.00;;;;;;5018109;28;20266;-91
2023/04/27 07:12:24;;;;;;;15.17;10.37;;;9.40;1.00;;;;;;5017365;28;20175;-91
2023/04/27 07:14:52;;;;;;;15.97;10.90;;;9.50;1.00;;;;;;5019080;28;20170;-91
2023/04/27 07:17:18;;;;;;;15.07;10.57;;;9.50;1.00;;;;;;5018587;28;20236;-92
2023/04/27 07:19:44;;;;;;;16.00;10.13;;;9.60;1.00;;;;;;5017545;28;20175;-92
2023/04/27 07:22:10;;;;;;;17.27;10.60;;;9.60;1.00;;;;;;5017218;28;20665;-91
2023/04/27 07:24:36;;;;;;;13.03;9.63;;;9.70;1.00;;;;;;5018173;28;20184;-90
2023/04/27 07:27:03;;;;;;;14.73;10.03;;;9.80;1.00;;;;;;5017314;28;20639;-91
2023/04/27 07:29:29;;;;;;;14.83;10.37;;;9.90;1.00;;;;;;5018365;28;20175;-91
2023/04/27 07:31:55;;;;;;;15.77;10.97;;;9.90;1.00;;;;;;5018921;28;20197;-91
2023/04/27 07:34:21;;;;;;;18.50;11.40;;;9.90;1.00;;;;;;5018150;28;20273;-91
2023/04/27 07:36:47;;;;;;;14.53;10.37;;;9.90;1.00;;;;;;5018698;28;20288;-91
2023/04/27 07:39:14;;;;;;;16.00;11.03;;;9.90;1.00;;;;;;5036213;28;20166;-91
2023/04/27 07:41:40;;;;;;;17.90;10.80;;;9.90;1.00;;;;;;5025871;28;20182;-91
2023/04/27 07:44:06;;;;;;;19.03;11.87;;;10.10;1.00;;;;;;5021401;28;20190;-91
2023/04/27 07:46:33;;;;;;;18.50;12.00;;;10.10;1.00;;;;;;5037050;28;20174;-90
2023/04/27 07:48:58;;;;;;;17.83;12.00;;;10.10;1.00;;;;;;5023997;28;20189;-90
2023/04/27 07:51:26;;;;;;;16.70;11.33;;;10.30;1.00;;;;;;5022876;28;20174;-91
2023/04/27 07:53:53;;;;;;;18.60;12.17;;;10.30;1.00;;;;;;5017361;28;20706;-90
2023/04/27 07:56:19;;;;;;;16.07;12.97;;;10.40;1.00;;;;;;5016205;28;20214;-91
2023/04/27 07:58:45;;;;;;;16.23;12.17;;;10.40;1.00;;;;;;5036145;28;20166;-89
2023/04/27 08:01:12;;;;;;;18.23;12.90;;;10.30;1.00;;;;;;5037310;28;20182;-89
2023/04/27 08:03:38;;;;;;;15.93;11.63;;;10.50;1.00;;;;;;5038479;28;20232;-90
2023/04/27 08:06:04;;;;;;;16.83;11.97;;;10.60;1.00;;;;;;5029601;28;20530;-90
2023/04/27 08:08:35;;;;;;;18.90;13.33;;;10.60;1.00;;;;;;5024090;28;20289;-90
2023/04/27 08:11:00;;;;;;;16.13;12.67;;;10.60;1.00;;;;;;5017981;28;20669;-92
2023/04/27 08:13:26;;;;;;;17.30;12.87;;;10.80;1.00;;;;;;5028455;28;20175;-91
2023/04/27 08:15:57;;;;;;;19.80;13.00;;;10.90;1.00;;;;;;5032770;28;20587;-92
2023/04/27 08:18:28;;;;;;;16.00;12.17;;;10.80;1.00;;;;;;5023725;28;20166;-92
2023/04/27 08:20:54;;;;;;;14.17;11.20;;;10.90;1.00;;;;;;5018147;28;20221;-90
2023/04/27 08:23:20;;;;;;;16.77;12.47;;;10.80;1.00;;;;;;5031738;28;20194;-91
2023/04/27 08:25:47;;;;;;;17.53;12.90;;;10.90;1.00;;;;;;5021914;28;20177;-86
2023/04/27 08:28:14;;;;;;;16.57;12.00;;;10.90;1.00;;;;;;5024449;28;20194;-88
2023/04/27 08:30:43;;;;;;;14.63;12.13;;;10.90;1.00;;;;;;5020787;28;20174;-87
2023/04/27 08:33:10;;;;;;;17.83;12.77;;;11.00;1.00;;;;;;5013317;28;20198;-88
2023/04/27 08:35:39;;;;;;;15.87;12.03;;;11.00;1.00;;;;;;5016506;28;20695;-86
2023/04/27 08:38:05;;;;;;;17.63;13.33;;;11.10;1.00;;;;;;5026048;28;20179;-85
2023/04/27 08:40:31;;;;;;;20.07;13.07;;;11.10;1.00;;;;;;5018565;28;20568;-83
2023/04/27 08:43:00;;;;;;;16.47;12.13;;;11.30;1.00;;;;;;5021462;28;20205;-86
2023/04/27 08:45:26;;;;;;;17.77;13.03;;;11.30;1.00;;;;;;5017859;28;20516;-86
2023/04/27 08:47:53;;;;;;;16.47;12.97;;;11.30;1.00;;;;;;5018738;28;20197;-89
2023/04/27 08:50:22;;;;;;;17.90;13.57;;;11.60;1.00;;;;;;5033446;28;20183;-86
2023/04/27 08:52:48;;;;;;;17.87;11.80;;;11.70;1.00;;;;;;5034394;28;20205;-88
2023/04/27 08:55:20;;;;;;;16.33;11.53;;;11.70;1.00;;;;;;5036726;28;20157;-84
2023/04/27 08:57:59;;;;;;;15.50;10.53;;;11.60;99.90;;;;;;5021538;28;20191;-86
2023/04/27 09:00:26;;;;;;;16.67;10.70;;;11.50;99.90;;;;;;5034753;28;20185;-87
2023/04/27 09:02:52;;;;;;;18.73;11.67;;;11.40;1.00;;;;;;5034778;28;20230;-86
2023/04/27 09:05:19;;;;;;;15.97;10.77;;;11.50;1.00;;;;;;5029551;28;20178;-87
2023/04/27 09:07:58;;;;;;;16.23;10.70;;;11.50;99.90;;;;;;5015328;28;20178;-87
2023/04/27 09:10:42;;;;;;;21.40;11.87;;;11.60;99.90;;;;;;5032140;28;20197;-84
2023/04/27 09:13:08;;;;;;;15.33;11.20;;;11.60;99.90;;;;;;5014711;28;20503;-85
2023/04/27 09:15:41;;;;;;;17.03;11.30;;;11.70;99.90;;;;;;5013912;28;20170;-87
2023/04/27 09:18:16;;;;;;;15.47;11.30;;;11.80;99.90;;;;;;5016556;28;20179;-87
2023/04/27 09:20:43;;;;;;;17.07;11.87;;;11.80;99.90;;;;;;5014348;28;20189;-86
2023/04/27 09:23:09;;;;;;;15.27;11.63;;;11.90;99.90;;;;;;4997937;28;20236;-87
2023/04/27 09:25:35;;;;;;;16.67;11.30;;;12.00;99.90;;;;;;5014509;28;20166;-85
2023/04/27 09:28:02;;;;;;;18.80;11.70;;;12.10;99.90;;;;;;5014774;28;20257;-87
2023/04/27 09:30:29;;;;;;;14.10;10.63;;;12.00;99.90;;;;;;5014081;28;20178;-86
2023/04/27 09:33:00;;;;;;;17.27;11.80;;;12.00;99.90;;;;;;5015109;28;20249;-86
2023/04/27 09:35:31;;;;;;;14.53;10.73;;;11.90;99.90;;;;;;5015155;28;20225;-85
2023/04/27 09:37:58;;;;;;;18.00;11.10;;;12.00;99.90;;;;;;5014907;28;20240;-86
2023/04/27 09:40:30;;;;;;;13.67;10.77;;;12.10;99.90;;;;;;5013614;28;20265;-84
2023/04/27 09:42:57;;;;;;;17.33;11.10;;;12.20;99.90;;;;;;5014028;28;20278;-86
2023/04/27 09:45:24;;;;;;;15.87;11.97;;;12.20;99.90;;;;;;5014274;28;20182;-86
2023/04/27 09:47:50;;;;;;;13.47;10.27;;;12.40;99.90;;;;;;5013814;28;20210;-88
2023/04/27 09:50:16;;;;;;;15.80;11.10;;;12.60;99.90;;;;;;5012819;28;20580;-87
2023/04/27 09:52:42;;;;;;;16.37;10.50;;;12.50;99.90;;;;;;5013235;28;20178;-87
2023/04/27 09:55:24;;;;;;;13.40;10.37;;;12.60;61.60;;;;;;5016756;28;20154;-87
2023/04/27 09:58:08;;;;;;;14.57;10.43;;;13.00;99.90;;;;;;5013568;28;20181;-88
2023/04/27 10:00:43;;;;;;;14.47;10.30;;;13.00;1.00;;;;;;5014073;28;20176;-86
2023/04/27 10:03:40;;;;;;;14.07;10.57;;;13.40;1.00;;;;;;5013379;28;20268;-86
2023/04/27 10:06:31;;;;;;;17.23;10.00;;;13.60;1.00;;;;;;5020633;28;20174;-87
2023/04/27 10:08:58;;;;;;;15.43;9.67;;;13.40;1.00;;;;;;5038761;28;20254;-86
2023/04/27 10:11:48;;;;;;;12.37;9.87;;;13.30;1.00;;;;;;5024004;28;20550;-87
2023/04/27 10:14:22;;;;;;;12.07;9.63;;;13.10;99.90;;;;;;5022045;28;20274;-86
2023/04/27 10:16:56;;;;;;;11.90;8.93;;;13.40;1.00;;;;;;5024654;28;20792;-91
2023/04/27 10:19:23;;;;;;;11.30;8.80;;;13.20;1.00;;;;;;5024008;28;20169;-91
2023/04/27 10:21:59;;;;;;;11.83;9.00;;;13.20;1.00;;;;;;5032626;28;20198;-91
2023/04/27 10:24:43;;;;;;;13.73;9.67;;;13.30;99.90;;;;;;5019116;28;20225;-91
2023/04/27 10:27:11;;;;;;;11.83;8.83;;;13.30;1.00;;;;;;5019087;28;20193;-91
2023/04/27 10:29:42;;;;;;;15.93;9.93;;;13.30;1.00;;;;;;5023339;28;20541;-90
2023/04/27 10:32:17;;;;;;;12.53;8.50;;;13.20;1.00;;;;;;5018171;28;20178;-90
2023/04/27 10:34:45;;;;;;;10.50;7.80;;;13.30;1.00;;;;;;5019575;28;20193;-90
2023/04/27 10:37:12;;;;;;;11.30;7.83;;;13.20;99.90;;;;;;5022401;28;20233;-89
2023/04/27 10:39:41;;;;;;;13.87;8.57;;;13.20;99.90;;;;;;5032458;28;20170;-88
2023/04/27 10:42:08;;;;;;;11.80;8.30;;;13.10;67.80;;;;;;5038171;28;20183;-89
2023/04/27 10:44:36;;;;;;;10.47;7.90;;;13.10;99.90;;;;;;5029451;28;20181;-90
2023/04/27 10:47:23;;;;;;;11.33;8.63;;;13.00;1.00;;;;;;5020722;28;20186;-90
2023/04/27 10:49:53;;;;;;;10.13;8.20;;;13.30;99.90;;;;;;5035005;28;20178;-90
2023/04/27 10:52:19;;;;;;;10.73;8.63;;;13.30;99.90;;;;;;5032346;28;20206;-89
2023/04/27 10:54:45;;;;;;;10.03;8.67;;;13.40;1.00;;;;;;5025781;28;20173;-90
2023/04/27 10:57:11;;;;;;;10.93;8.63;;;13.60;1.00;;;;;;5019945;28;20214;-90
2023/04/27 10:59:54;;;;;;;11.03;8.50;;;13.90;1.00;;;;;;5019758;28;20176;-89
2023/04/27 11:02:27;;;;;;;8.97;6.83;;;14.10;1.00;;;;;;5018406;28;20179;-90
2023/04/27 11:04:55;;;;;;;12.63;8.37;;;14.10;1.00;;;;;;5033328;28;20176;-90
2023/04/27 11:07:26;;;;;;;11.53;8.30;;;13.60;1.00;;;;;;5039408;28;20195;-90
2023/04/27 11:09:54;;;;;;;12.53;8.33;;;13.50;3.80;;;;;;5040615;28;20184;-89
2023/04/27 11:12:20;;;;;;;10.17;8.60;;;13.60;99.90;;;;;;5030603;28;20651;-90
2023/04/27 11:14:49;;;;;;;12.63;8.70;;;13.50;1.00;;;;;;5024286;28;20168;-90
2023/04/27 11:17:59;;;;;;;13.63;8.37;;;13.50;99.90;;;;;;5002049;28;20217;-90
2023/04/27 11:20:24;;;;;;;11.07;8.23;;;13.70;99.90;;;;;;5017638;28;20184;-90
2023/04/27 11:22:50;;;;;;;12.63;7.87;;;13.60;99.90;;;;;;5017478;28;20183;-90
2023/04/27 11:25:16;;;;;;;9.93;7.90;;;13.60;1.00;;;;;;5018390;28;20172;-88
2023/04/27 11:27:44;;;;;;;9.17;7.47;;;13.50;99.90;;;;;;5018418;28;20202;-89
2023/04/27 11:30:20;;;;;;;9.93;8.10;;;13.50;1.00;;;;;;5017035;28;20594;-90
2023/04/27 11:32:47;;;;;;;13.03;8.53;;;13.30;1.00;;;;;;5016186;28;20173;-91
2023/04/27 11:35:13;;;;;;;10.57;7.43;;;13.40;99.90;;;;;;5018643;28;20336;-89
2023/04/27 11:37:40;;;;;;;11.57;9.23;;;13.40;99.90;;;;;;5025967;28;20242;-87
2023/04/27 11:40:08;;;;;;;11.73;8.47;;;13.50;1.00;;;;;;5032723;28;20186;-89
2023/04/27 11:42:34;;;;;;;11.93;8.50;;;13.70;1.00;;;;;;5017948;28;20551;-89
2023/04/27 11:45:06;;;;;;;12.53;8.60;;;13.70;1.00;;;;;;5016881;28;20183;-91
2023/04/27 11:47:34;;;;;;;16.13;9.43;;;13.60;99.90;;;;;;5016888;28;20267;-89
2023/04/27 11:50:03;;;;;;;11.83;8.70;;;13.60;99.90;;;;;;5017681;28;20186;-87
2023/04/27 11:52:37;;;;;;;10.37;8.50;;;13.80;1.00;;;;;;5017336;28;20178;-88
2023/04/27 11:55:04;;;;;;;10.33;7.83;;;13.80;1.00;;;;;;5036160;28;20180;-88
2023/04/27 11:57:32;;;;;;;9.27;7.07;;;13.70;99.90;;;;;;5038120;28;20303;-88
2023/04/27 12:00:00;;;;;;;11.03;8.57;;;13.50;1.00;;;;;;5019067;28;20183;-88
2023/04/27 12:02:30;;;;;;;10.27;8.33;;;13.50;99.90;;;;;;5034397;28;20160;-88
2023/04/27 12:04:58;;;;;;;10.80;8.20;;;13.80;1.00;;;;;;5036946;28;20175;-88
2023/04/27 12:07:27;;;;;;;12.33;8.33;;;14.00;5.40;;;;;;5028249;28;20183;-88
2023/04/27 12:09:53;;;;;;;13.13;9.40;;;14.00;99.90;;;;;;5018364;28;20190;-87
2023/04/27 12:12:21;;;;;;;11.73;8.80;;;13.90;20.60;;;;;;5036580;28;20209;-88
2023/04/27 12:14:48;;;;;;;12.80;8.80;;;13.90;1.00;;;;;;5021744;28;20266;-87
2023/04/27 12:17:13;;;;;;;12.97;9.03;;;14.00;99.90;;;;;;5015945;28;20267;-87
2023/04/27 12:19:39;;;;;;;13.93;8.90;;;14.10;1.00;;;;;;5015962;28;20172;-87
2023/04/27 12:22:05;;;;;;;11.70;8.20;;;14.50;1.00;;;;;;5018775;28;20189;-88
2023/04/27 12:24:33;;;;;;;13.30;9.07;;;14.70;1.00;;;;;;5016772;28;20332;-87
2023/04/27 12:27:00;;;;;;;13.70;9.13;;;14.70;99.90;;;;;;5016166;28;20234;-87
2023/04/27 12:29:26;;;;;;;14.73;9.17;;;14.50;63.50;;;;;;5022290;28;20280;-87
2023/04/27 12:31:52;;;;;;;12.70;9.33;;;14.40;1.00;;;;;;5035030;28;20191;-86
2023/04/27 12:34:18;;;;;;;10.47;8.00;;;14.50;1.00;;;;;;5031877;28;20264;-88
2023/04/27 12:36:45;;;;;;;8.73;7.60;;;14.40;99.90;;;;;;5017812;28;20227;-88
2023/04/27 12:39:16;;;;;;;10.43;7.23;;;14.40;99.90;;;;;;5018380;28;20253;-87
2023/04/27 12:41:49;;;;;;;15.13;7.70;;;14.30;99.90;;;;;;5022488;28;20192;-88
2023/04/27 12:44:17;;;;;;;12.03;8.83;;;14.30;99.90;;;;;;5016496;28;20192;-89
2023/04/27 12:46:45;;;;;;;11.60;9.03;;;14.40;99.90;;;;;;5017428;28;20703;-87
2023/04/27 12:49:11;;;;;;;9.97;8.50;;;14.60;1.00;;;;;;5020577;28;20566;-87
2023/04/27 12:51:38;;;;;;;11.37;8.53;;;14.80;1.00;;;;;;5021655;28;20201;-87
2023/04/27 12:54:08;;;;;;;11.40;8.87;;;14.70;99.90;;;;;;5025568;28;20228;-86